sensor_id;sensor_type;location;lat;lon;timestamp;P1;durP1;ratioP1;P2;durP2;ratioP2
32393;SDS011;18853;45.426;9.206;2022-07-30T00:02:02;28.15;;;24.25;;
32393;SDS011;18853;45.426;9.206;2022-07-30T00:04:28;31.30;;;26.20;;
32393;SDS011;18853;45.426;9.206;2022-07-30T00:06:53;30.60;;;25.55;;
32393;SDS011;18853;45.426;9.206;2022-07-30T00:09:19;30.15;;;25.85;;
32393;SDS011;18853;45.426;9.206;2022-07-30T00:11:44;30.67;;;25.85;;
32393;SDS011;18853;45.426;9.206;2022-07-30T00:14:10;27.40;;;22.35;;
32393;SDS011;18853;45.426;9.206;2022-07-30T00:16:36;27.42;;;22.63;;
32393;SDS011;18853;45.426;9.206;2022-07-30T00:19:02;27.15;;;23.38;;
32393;SDS011;18853;45.426;9.206;2022-07-30T00:21:28;30.05;;;25.17;;
32393;SDS011;18853;45.426;9.206;2022-07-30T00:23:54;31.40;;;26.92;;
32393;SDS011;18853;45.426;9.206;2022-07-30T00:26:19;33.78;;;26.20;;
32393;SDS011;18853;45.426;9.206;2022-07-30T00:28:45;37.95;;;31.02;;
32393;SDS011;18853;45.426;9.206;2022-07-30T00:31:10;37.08;;;30.70;;
32393;SDS011;18853;45.426;9.206;2022-07-30T00:33:36;37.50;;;30.27;;
32393;SDS011;18853;45.426;9.206;2022-07-30T00:36:02;38.88;;;30.90;;
32393;SDS011;18853;45.426;9.206;2022-07-30T00:38:27;39.63;;;29.23;;
32393;SDS011;18853;45.426;9.206;2022-07-30T00:40:53;37.72;;;29.05;;
32393;SDS011;18853;45.426;9.206;2022-07-30T00:43:19;36.15;;;29.38;;
32393;SDS011;18853;45.426;9.206;2022-07-30T00:45:45;36.17;;;26.75;;
32393;SDS011;18853;45.426;9.206;2022-07-30T00:48:11;37.47;;;28.65;;
32393;SDS011;18853;45.426;9.206;2022-07-30T00:50:38;34.97;;;27.83;;
32393;SDS011;18853;45.426;9.206;2022-07-30T00:53:05;34.72;;;27.25;;
32393;SDS011;18853;45.426;9.206;2022-07-30T00:55:31;35.80;;;27.00;;
32393;SDS011;18853;45.426;9.206;2022-07-30T00:57:58;35.20;;;26.83;;
32393;SDS011;18853;45.426;9.206;2022-07-30T01:00:23;36.53;;;26.23;;
32393;SDS011;18853;45.426;9.206;2022-07-30T01:02:49;34.13;;;27.13;;
32393;SDS011;18853;45.426;9.206;2022-07-30T01:05:15;40.22;;;27.77;;
32393;SDS011;18853;45.426;9.206;2022-07-30T01:07:41;34.65;;;26.33;;
32393;SDS011;18853;45.426;9.206;2022-07-30T01:10:07;35.33;;;26.30;;
32393;SDS011;18853;45.426;9.206;2022-07-30T01:12:34;34.75;;;24.92;;
32393;SDS011;18853;45.426;9.206;2022-07-30T01:15:02;27.85;;;20.85;;
32393;SDS011;18853;45.426;9.206;2022-07-30T01:17:29;33.17;;;24.05;;
32393;SDS011;18853;45.426;9.206;2022-07-30T01:19:57;36.10;;;26.35;;
32393;SDS011;18853;45.426;9.206;2022-07-30T01:28:08;30.13;;;23.63;;
32393;SDS011;18853;45.426;9.206;2022-07-30T01:30:40;29.05;;;22.58;;
32393;SDS011;18853;45.426;9.206;2022-07-30T01:33:07;28.13;;;20.70;;
32393;SDS011;18853;45.426;9.206;2022-07-30T01:35:41;29.23;;;21.10;;
32393;SDS011;18853;45.426;9.206;2022-07-30T01:38:10;18.77;;;13.45;;
32393;SDS011;18853;45.426;9.206;2022-07-30T01:40:38;27.75;;;19.95;;
32393;SDS011;18853;45.426;9.206;2022-07-30T01:43:06;17.77;;;13.80;;
32393;SDS011;18853;45.426;9.206;2022-07-30T01:45:33;14.18;;;11.30;;
32393;SDS011;18853;45.426;9.206;2022-07-30T01:48:00;23.08;;;17.52;;
32393;SDS011;18853;45.426;9.206;2022-07-30T01:50:29;22.75;;;17.13;;
32393;SDS011;18853;45.426;9.206;2022-07-30T01:52:56;23.25;;;17.52;;
32393;SDS011;18853;45.426;9.206;2022-07-30T01:55:28;20.23;;;16.35;;
32393;SDS011;18853;45.426;9.206;2022-07-30T01:58:04;21.63;;;16.17;;
32393;SDS011;18853;45.426;9.206;2022-07-30T02:00:32;18.60;;;15.77;;
32393;SDS011;18853;45.426;9.206;2022-07-30T02:03:01;23.02;;;17.40;;
32393;SDS011;18853;45.426;9.206;2022-07-30T02:05:29;20.40;;;15.70;;
32393;SDS011;18853;45.426;9.206;2022-07-30T02:08:00;20.05;;;15.27;;
32393;SDS011;18853;45.426;9.206;2022-07-30T02:10:47;22.55;;;17.35;;
32393;SDS011;18853;45.426;9.206;2022-07-30T02:13:16;19.73;;;15.68;;
32393;SDS011;18853;45.426;9.206;2022-07-30T02:15:53;20.25;;;16.63;;
32393;SDS011;18853;45.426;9.206;2022-07-30T02:18:20;17.88;;;15.63;;
32393;SDS011;18853;45.426;9.206;2022-07-30T02:20:55;19.85;;;15.55;;
32393;SDS011;18853;45.426;9.206;2022-07-30T02:23:28;20.10;;;14.73;;
32393;SDS011;18853;45.426;9.206;2022-07-30T02:25:59;15.50;;;12.30;;
32393;SDS011;18853;45.426;9.206;2022-07-30T02:28:25;16.58;;;14.02;;
32393;SDS011;18853;45.426;9.206;2022-07-30T02:30:56;18.15;;;13.70;;
32393;SDS011;18853;45.426;9.206;2022-07-30T02:33:25;12.50;;;9.80;;
32393;SDS011;18853;45.426;9.206;2022-07-30T02:35:54;17.88;;;15.30;;
32393;SDS011;18853;45.426;9.206;2022-07-30T02:38:21;17.50;;;14.55;;
32393;SDS011;18853;45.426;9.206;2022-07-30T02:40:49;14.50;;;12.32;;
32393;SDS011;18853;45.426;9.206;2022-07-30T02:43:16;18.05;;;15.00;;
32393;SDS011;18853;45.426;9.206;2022-07-30T02:45:42;18.88;;;15.80;;
32393;SDS011;18853;45.426;9.206;2022-07-30T02:48:10;17.48;;;14.80;;
32393;SDS011;18853;45.426;9.206;2022-07-30T02:50:38;18.80;;;15.48;;
32393;SDS011;18853;45.426;9.206;2022-07-30T02:53:06;20.35;;;15.68;;
32393;SDS011;18853;45.426;9.206;2022-07-30T02:55:35;23.60;;;19.48;;
32393;SDS011;18853;45.426;9.206;2022-07-30T02:58:03;24.20;;;20.77;;
32393;SDS011;18853;45.426;9.206;2022-07-30T03:00:30;23.27;;;19.75;;
32393;SDS011;18853;45.426;9.206;2022-07-30T03:03:00;22.50;;;19.05;;
32393;SDS011;18853;45.426;9.206;2022-07-30T03:05:28;21.52;;;19.15;;
32393;SDS011;18853;45.426;9.206;2022-07-30T03:07:55;22.65;;;18.80;;
32393;SDS011;18853;45.426;9.206;2022-07-30T03:10:23;22.98;;;19.10;;
32393;SDS011;18853;45.426;9.206;2022-07-30T03:12:49;23.02;;;20.13;;
32393;SDS011;18853;45.426;9.206;2022-07-30T03:15:16;24.42;;;21.80;;
32393;SDS011;18853;45.426;9.206;2022-07-30T03:17:43;23.98;;;19.55;;
32393;SDS011;18853;45.426;9.206;2022-07-30T03:20:13;26.95;;;21.23;;
32393;SDS011;18853;45.426;9.206;2022-07-30T03:22:42;23.88;;;20.50;;
32393;SDS011;18853;45.426;9.206;2022-07-30T03:25:11;24.90;;;20.83;;
32393;SDS011;18853;45.426;9.206;2022-07-30T03:27:40;25.23;;;21.02;;
32393;SDS011;18853;45.426;9.206;2022-07-30T03:30:08;24.15;;;19.52;;
32393;SDS011;18853;45.426;9.206;2022-07-30T03:32:34;25.23;;;21.88;;
32393;SDS011;18853;45.426;9.206;2022-07-30T03:35:01;23.77;;;20.77;;
32393;SDS011;18853;45.426;9.206;2022-07-30T03:37:27;23.92;;;21.15;;
32393;SDS011;18853;45.426;9.206;2022-07-30T03:39:55;27.77;;;23.33;;
32393;SDS011;18853;45.426;9.206;2022-07-30T03:42:22;27.17;;;24.27;;
32393;SDS011;18853;45.426;9.206;2022-07-30T03:44:48;29.33;;;23.30;;
32393;SDS011;18853;45.426;9.206;2022-07-30T03:47:14;27.55;;;23.08;;
32393;SDS011;18853;45.426;9.206;2022-07-30T03:49:41;28.50;;;23.83;;
32393;SDS011;18853;45.426;9.206;2022-07-30T03:52:07;27.48;;;23.13;;
32393;SDS011;18853;45.426;9.206;2022-07-30T03:54:33;26.48;;;23.52;;
32393;SDS011;18853;45.426;9.206;2022-07-30T03:57:00;20.77;;;17.67;;
32393;SDS011;18853;45.426;9.206;2022-07-30T03:59:27;17.27;;;13.35;;
32393;SDS011;18853;45.426;9.206;2022-07-30T04:01:53;13.38;;;11.98;;
32393;SDS011;18853;45.426;9.206;2022-07-30T04:04:19;14.73;;;11.88;;
32393;SDS011;18853;45.426;9.206;2022-07-30T04:06:45;21.38;;;17.38;;
32393;SDS011;18853;45.426;9.206;2022-07-30T04:09:11;24.33;;;20.05;;
32393;SDS011;18853;45.426;9.206;2022-07-30T04:11:37;26.05;;;21.63;;
32393;SDS011;18853;45.426;9.206;2022-07-30T04:14:03;22.45;;;20.02;;
32393;SDS011;18853;45.426;9.206;2022-07-30T04:19:27;24.77;;;22.05;;
32393;SDS011;18853;45.426;9.206;2022-07-30T04:21:56;22.33;;;19.40;;
32393;SDS011;18853;45.426;9.206;2022-07-30T04:24:25;21.10;;;18.63;;
32393;SDS011;18853;45.426;9.206;2022-07-30T04:26:52;24.00;;;19.25;;
32393;SDS011;18853;45.426;9.206;2022-07-30T04:29:18;24.45;;;18.20;;
32393;SDS011;18853;45.426;9.206;2022-07-30T04:31:44;26.60;;;22.35;;
32393;SDS011;18853;45.426;9.206;2022-07-30T04:34:13;28.23;;;23.70;;
32393;SDS011;18853;45.426;9.206;2022-07-30T04:36:39;26.70;;;23.85;;
32393;SDS011;18853;45.426;9.206;2022-07-30T04:39:06;28.40;;;24.33;;
32393;SDS011;18853;45.426;9.206;2022-07-30T04:41:32;29.83;;;24.50;;
32393;SDS011;18853;45.426;9.206;2022-07-30T04:43:57;27.40;;;23.60;;
32393;SDS011;18853;45.426;9.206;2022-07-30T04:46:23;28.15;;;23.10;;
32393;SDS011;18853;45.426;9.206;2022-07-30T04:48:48;25.75;;;22.63;;
32393;SDS011;18853;45.426;9.206;2022-07-30T04:51:19;25.38;;;22.33;;
32393;SDS011;18853;45.426;9.206;2022-07-30T04:54:00;25.67;;;22.63;;
32393;SDS011;18853;45.426;9.206;2022-07-30T04:56:29;26.02;;;23.15;;
32393;SDS011;18853;45.426;9.206;2022-07-30T04:58:57;26.58;;;22.40;;
32393;SDS011;18853;45.426;9.206;2022-07-30T05:01:25;25.25;;;22.15;;
32393;SDS011;18853;45.426;9.206;2022-07-30T05:03:55;22.83;;;20.42;;
32393;SDS011;18853;45.426;9.206;2022-07-30T05:06:24;24.15;;;20.05;;
32393;SDS011;18853;45.426;9.206;2022-07-30T05:08:50;24.50;;;21.00;;
32393;SDS011;18853;45.426;9.206;2022-07-30T05:11:16;24.58;;;21.90;;
32393;SDS011;18853;45.426;9.206;2022-07-30T05:13:42;23.98;;;21.15;;
32393;SDS011;18853;45.426;9.206;2022-07-30T05:16:09;22.70;;;20.13;;
32393;SDS011;18853;45.426;9.206;2022-07-30T05:18:35;22.13;;;19.73;;
32393;SDS011;18853;45.426;9.206;2022-07-30T05:21:02;40.67;;;36.15;;
32393;SDS011;18853;45.426;9.206;2022-07-30T05:23:28;30.52;;;25.15;;
32393;SDS011;18853;45.426;9.206;2022-07-30T05:25:54;25.77;;;22.13;;
32393;SDS011;18853;45.426;9.206;2022-07-30T05:28:20;42.17;;;36.53;;
32393;SDS011;18853;45.426;9.206;2022-07-30T05:30:46;23.23;;;20.48;;
32393;SDS011;18853;45.426;9.206;2022-07-30T05:33:12;24.38;;;19.75;;
32393;SDS011;18853;45.426;9.206;2022-07-30T05:35:38;23.83;;;20.50;;
32393;SDS011;18853;45.426;9.206;2022-07-30T05:38:03;21.52;;;19.23;;
32393;SDS011;18853;45.426;9.206;2022-07-30T05:40:29;20.70;;;17.67;;
32393;SDS011;18853;45.426;9.206;2022-07-30T05:42:55;22.15;;;19.27;;
32393;SDS011;18853;45.426;9.206;2022-07-30T05:45:20;16.88;;;14.68;;
32393;SDS011;18853;45.426;9.206;2022-07-30T05:47:46;20.55;;;16.08;;
32393;SDS011;18853;45.426;9.206;2022-07-30T05:50:12;89.90;;;67.35;;
32393;SDS011;18853;45.426;9.206;2022-07-30T05:52:38;65.28;;;50.88;;
32393;SDS011;18853;45.426;9.206;2022-07-30T05:55:03;34.00;;;28.40;;
32393;SDS011;18853;45.426;9.206;2022-07-30T05:57:29;21.08;;;18.15;;
32393;SDS011;18853;45.426;9.206;2022-07-30T05:59:55;38.75;;;31.75;;
32393;SDS011;18853;45.426;9.206;2022-07-30T06:02:20;39.45;;;29.63;;
32393;SDS011;18853;45.426;9.206;2022-07-30T06:04:48;17.80;;;15.57;;
32393;SDS011;18853;45.426;9.206;2022-07-30T06:07:13;17.90;;;14.63;;
32393;SDS011;18853;45.426;9.206;2022-07-30T06:09:39;17.98;;;15.75;;
32393;SDS011;18853;45.426;9.206;2022-07-30T06:12:04;17.02;;;15.23;;
32393;SDS011;18853;45.426;9.206;2022-07-30T06:14:30;16.33;;;14.18;;
32393;SDS011;18853;45.426;9.206;2022-07-30T06:16:56;18.60;;;14.68;;
32393;SDS011;18853;45.426;9.206;2022-07-30T06:19:21;15.27;;;13.68;;
32393;SDS011;18853;45.426;9.206;2022-07-30T06:21:47;16.98;;;14.77;;
32393;SDS011;18853;45.426;9.206;2022-07-30T06:24:13;15.70;;;13.38;;
32393;SDS011;18853;45.426;9.206;2022-07-30T06:26:38;14.43;;;12.90;;
32393;SDS011;18853;45.426;9.206;2022-07-30T06:29:04;15.93;;;13.27;;
32393;SDS011;18853;45.426;9.206;2022-07-30T06:31:30;16.50;;;13.55;;
32393;SDS011;18853;45.426;9.206;2022-07-30T06:33:56;14.40;;;12.57;;
32393;SDS011;18853;45.426;9.206;2022-07-30T06:36:21;15.18;;;13.57;;
32393;SDS011;18853;45.426;9.206;2022-07-30T06:38:47;15.20;;;13.05;;
32393;SDS011;18853;45.426;9.206;2022-07-30T06:41:12;14.90;;;13.23;;
32393;SDS011;18853;45.426;9.206;2022-07-30T06:43:39;16.42;;;13.48;;
32393;SDS011;18853;45.426;9.206;2022-07-30T06:46:05;16.13;;;12.85;;
32393;SDS011;18853;45.426;9.206;2022-07-30T06:48:30;13.50;;;12.10;;
32393;SDS011;18853;45.426;9.206;2022-07-30T06:50:56;17.20;;;13.55;;
32393;SDS011;18853;45.426;9.206;2022-07-30T06:53:22;21.00;;;16.20;;
32393;SDS011;18853;45.426;9.206;2022-07-30T06:55:47;16.90;;;13.93;;
32393;SDS011;18853;45.426;9.206;2022-07-30T06:58:14;15.20;;;13.52;;
32393;SDS011;18853;45.426;9.206;2022-07-30T07:00:40;17.85;;;13.60;;
32393;SDS011;18853;45.426;9.206;2022-07-30T07:03:08;17.42;;;14.20;;
32393;SDS011;18853;45.426;9.206;2022-07-30T07:05:34;15.35;;;13.55;;
32393;SDS011;18853;45.426;9.206;2022-07-30T07:08:00;16.50;;;13.52;;
32393;SDS011;18853;45.426;9.206;2022-07-30T07:10:26;18.63;;;14.40;;
32393;SDS011;18853;45.426;9.206;2022-07-30T07:12:52;14.93;;;13.32;;
32393;SDS011;18853;45.426;9.206;2022-07-30T07:15:17;14.07;;;12.20;;
32393;SDS011;18853;45.426;9.206;2022-07-30T07:17:43;14.65;;;11.68;;
32393;SDS011;18853;45.426;9.206;2022-07-30T07:20:09;15.57;;;11.70;;
32393;SDS011;18853;45.426;9.206;2022-07-30T07:22:35;11.98;;;10.45;;
32393;SDS011;18853;45.426;9.206;2022-07-30T07:25:01;14.88;;;10.95;;
32393;SDS011;18853;45.426;9.206;2022-07-30T07:27:26;12.98;;;10.30;;
32393;SDS011;18853;45.426;9.206;2022-07-30T07:29:52;17.52;;;9.68;;
32393;SDS011;18853;45.426;9.206;2022-07-30T07:32:18;11.60;;;8.82;;
32393;SDS011;18853;45.426;9.206;2022-07-30T07:34:44;9.18;;;7.25;;
32393;SDS011;18853;45.426;9.206;2022-07-30T07:37:09;8.32;;;5.70;;
32393;SDS011;18853;45.426;9.206;2022-07-30T07:39:35;8.93;;;5.60;;
32393;SDS011;18853;45.426;9.206;2022-07-30T07:42:02;8.30;;;5.63;;
32393;SDS011;18853;45.426;9.206;2022-07-30T07:44:28;7.75;;;5.55;;
32393;SDS011;18853;45.426;9.206;2022-07-30T07:46:54;7.82;;;6.45;;
32393;SDS011;18853;45.426;9.206;2022-07-30T07:49:19;7.78;;;6.22;;
32393;SDS011;18853;45.426;9.206;2022-07-30T07:51:45;7.10;;;6.40;;
32393;SDS011;18853;45.426;9.206;2022-07-30T07:54:10;7.93;;;6.97;;
32393;SDS011;18853;45.426;9.206;2022-07-30T07:56:36;10.02;;;7.55;;
32393;SDS011;18853;45.426;9.206;2022-07-30T07:59:02;10.30;;;8.52;;
32393;SDS011;18853;45.426;9.206;2022-07-30T08:01:27;8.70;;;6.72;;
32393;SDS011;18853;45.426;9.206;2022-07-30T08:03:53;7.90;;;6.57;;
32393;SDS011;18853;45.426;9.206;2022-07-30T08:06:18;10.45;;;6.28;;
32393;SDS011;18853;45.426;9.206;2022-07-30T08:08:44;6.50;;;5.80;;
32393;SDS011;18853;45.426;9.206;2022-07-30T08:11:10;7.93;;;6.40;;
32393;SDS011;18853;45.426;9.206;2022-07-30T08:13:35;7.75;;;5.50;;
32393;SDS011;18853;45.426;9.206;2022-07-30T08:16:01;6.57;;;5.40;;
32393;SDS011;18853;45.426;9.206;2022-07-30T08:18:27;6.70;;;5.97;;
32393;SDS011;18853;45.426;9.206;2022-07-30T08:20:53;7.43;;;5.45;;
32393;SDS011;18853;45.426;9.206;2022-07-30T08:23:19;8.02;;;6.38;;
32393;SDS011;18853;45.426;9.206;2022-07-30T08:25:46;8.98;;;5.70;;
32393;SDS011;18853;45.426;9.206;2022-07-30T08:28:12;9.77;;;5.50;;
32393;SDS011;18853;45.426;9.206;2022-07-30T08:30:38;8.55;;;5.15;;
32393;SDS011;18853;45.426;9.206;2022-07-30T08:33:04;6.55;;;4.78;;
32393;SDS011;18853;45.426;9.206;2022-07-30T08:35:30;7.90;;;5.38;;
32393;SDS011;18853;45.426;9.206;2022-07-30T08:37:55;6.88;;;5.63;;
32393;SDS011;18853;45.426;9.206;2022-07-30T08:40:21;6.95;;;4.95;;
32393;SDS011;18853;45.426;9.206;2022-07-30T08:42:51;6.40;;;5.32;;
32393;SDS011;18853;45.426;9.206;2022-07-30T08:45:17;5.18;;;4.53;;
32393;SDS011;18853;45.426;9.206;2022-07-30T08:47:44;5.63;;;3.95;;
32393;SDS011;18853;45.426;9.206;2022-07-30T08:50:11;6.07;;;4.00;;
32393;SDS011;18853;45.426;9.206;2022-07-30T08:52:38;6.93;;;4.47;;
32393;SDS011;18853;45.426;9.206;2022-07-30T08:55:04;6.05;;;4.00;;
32393;SDS011;18853;45.426;9.206;2022-07-30T08:57:32;4.68;;;4.05;;
32393;SDS011;18853;45.426;9.206;2022-07-30T08:59:58;4.97;;;3.75;;
32393;SDS011;18853;45.426;9.206;2022-07-30T09:02:24;7.43;;;3.25;;
32393;SDS011;18853;45.426;9.206;2022-07-30T09:04:50;5.72;;;3.17;;
32393;SDS011;18853;45.426;9.206;2022-07-30T09:07:16;6.68;;;3.55;;
32393;SDS011;18853;45.426;9.206;2022-07-30T09:09:41;7.53;;;3.60;;
32393;SDS011;18853;45.426;9.206;2022-07-30T09:17:43;5.38;;;3.60;;
32393;SDS011;18853;45.426;9.206;2022-07-30T09:20:09;7.07;;;4.25;;
32393;SDS011;18853;45.426;9.206;2022-07-30T09:22:41;6.80;;;4.45;;
32393;SDS011;18853;45.426;9.206;2022-07-30T09:25:09;6.45;;;4.43;;
32393;SDS011;18853;45.426;9.206;2022-07-30T09:27:55;7.75;;;3.90;;
32393;SDS011;18853;45.426;9.206;2022-07-30T09:35:12;7.22;;;3.40;;
32393;SDS011;18853;45.426;9.206;2022-07-30T09:37:38;5.18;;;3.65;;
32393;SDS011;18853;45.426;9.206;2022-07-30T09:40:14;6.97;;;3.38;;
32393;SDS011;18853;45.426;9.206;2022-07-30T09:42:41;5.78;;;3.20;;
32393;SDS011;18853;45.426;9.206;2022-07-30T09:45:11;3.83;;;3.00;;
32393;SDS011;18853;45.426;9.206;2022-07-30T09:47:39;6.65;;;2.85;;
32393;SDS011;18853;45.426;9.206;2022-07-30T09:50:09;4.53;;;3.08;;
32393;SDS011;18853;45.426;9.206;2022-07-30T09:52:41;3.20;;;2.53;;
32393;SDS011;18853;45.426;9.206;2022-07-30T09:55:09;4.00;;;2.70;;
32393;SDS011;18853;45.426;9.206;2022-07-30T09:57:35;6.68;;;4.03;;
32393;SDS011;18853;45.426;9.206;2022-07-30T10:00:20;5.32;;;4.35;;
32393;SDS011;18853;45.426;9.206;2022-07-30T10:02:47;4.85;;;3.83;;
32393;SDS011;18853;45.426;9.206;2022-07-30T10:05:14;5.50;;;4.32;;
32393;SDS011;18853;45.426;9.206;2022-07-30T10:07:48;5.32;;;4.00;;
32393;SDS011;18853;45.426;9.206;2022-07-30T10:10:20;6.18;;;4.63;;
32393;SDS011;18853;45.426;9.206;2022-07-30T10:12:50;9.85;;;5.57;;
32393;SDS011;18853;45.426;9.206;2022-07-30T10:15:18;8.13;;;5.85;;
32393;SDS011;18853;45.426;9.206;2022-07-30T10:17:45;6.72;;;5.43;;
32393;SDS011;18853;45.426;9.206;2022-07-30T10:20:12;8.32;;;6.07;;
32393;SDS011;18853;45.426;9.206;2022-07-30T10:22:39;6.75;;;5.93;;
32393;SDS011;18853;45.426;9.206;2022-07-30T10:25:06;7.80;;;6.35;;
32393;SDS011;18853;45.426;9.206;2022-07-30T10:27:32;7.07;;;5.90;;
32393;SDS011;18853;45.426;9.206;2022-07-30T10:29:59;8.15;;;5.68;;
32393;SDS011;18853;45.426;9.206;2022-07-30T10:32:26;8.32;;;5.75;;
32393;SDS011;18853;45.426;9.206;2022-07-30T10:34:52;8.63;;;5.35;;
32393;SDS011;18853;45.426;9.206;2022-07-30T10:37:18;6.70;;;5.35;;
32393;SDS011;18853;45.426;9.206;2022-07-30T10:39:48;7.68;;;5.53;;
32393;SDS011;18853;45.426;9.206;2022-07-30T10:45:06;8.57;;;5.20;;
32393;SDS011;18853;45.426;9.206;2022-07-30T10:47:51;6.57;;;4.65;;
32393;SDS011;18853;45.426;9.206;2022-07-30T10:50:19;7.25;;;4.97;;
32393;SDS011;18853;45.426;9.206;2022-07-30T10:52:57;9.20;;;5.38;;
32393;SDS011;18853;45.426;9.206;2022-07-30T10:55:28;8.98;;;5.50;;
32393;SDS011;18853;45.426;9.206;2022-07-30T10:58:11;6.25;;;5.03;;
32393;SDS011;18853;45.426;9.206;2022-07-30T11:03:18;8.00;;;5.70;;
32393;SDS011;18853;45.426;9.206;2022-07-30T11:05:45;6.97;;;5.22;;
32393;SDS011;18853;45.426;9.206;2022-07-30T11:10:58;8.18;;;6.05;;
32393;SDS011;18853;45.426;9.206;2022-07-30T11:16:19;7.88;;;5.55;;
32393;SDS011;18853;45.426;9.206;2022-07-30T11:19:13;7.78;;;5.78;;
32393;SDS011;18853;45.426;9.206;2022-07-30T11:21:45;5.38;;;4.43;;
32393;SDS011;18853;45.426;9.206;2022-07-30T11:24:40;5.75;;;3.92;;
32393;SDS011;18853;45.426;9.206;2022-07-30T11:29:58;8.23;;;5.28;;
32393;SDS011;18853;45.426;9.206;2022-07-30T11:32:25;6.03;;;5.13;;
32393;SDS011;18853;45.426;9.206;2022-07-30T11:45:44;7.10;;;5.85;;
32393;SDS011;18853;45.426;9.206;2022-07-30T11:48:12;6.47;;;5.38;;
32393;SDS011;18853;45.426;9.206;2022-07-30T11:50:40;8.18;;;5.93;;
32393;SDS011;18853;45.426;9.206;2022-07-30T11:53:08;7.72;;;4.95;;
32393;SDS011;18853;45.426;9.206;2022-07-30T11:55:38;7.32;;;5.72;;
32393;SDS011;18853;45.426;9.206;2022-07-30T11:58:09;6.82;;;4.40;;
32393;SDS011;18853;45.426;9.206;2022-07-30T12:00:48;5.68;;;4.47;;
32393;SDS011;18853;45.426;9.206;2022-07-30T12:03:18;5.38;;;4.38;;
32393;SDS011;18853;45.426;9.206;2022-07-30T12:05:45;5.90;;;4.22;;
32393;SDS011;18853;45.426;9.206;2022-07-30T12:08:12;5.60;;;4.82;;
32393;SDS011;18853;45.426;9.206;2022-07-30T12:10:41;5.97;;;4.47;;
32393;SDS011;18853;45.426;9.206;2022-07-30T12:15:39;5.97;;;4.32;;
32393;SDS011;18853;45.426;9.206;2022-07-30T12:18:09;7.65;;;4.10;;
32393;SDS011;18853;45.426;9.206;2022-07-30T12:20:38;6.45;;;3.75;;
32393;SDS011;18853;45.426;9.206;2022-07-30T12:23:11;7.03;;;4.85;;
32393;SDS011;18853;45.426;9.206;2022-07-30T12:25:38;6.63;;;4.55;;
32393;SDS011;18853;45.426;9.206;2022-07-30T12:28:05;7.78;;;4.65;;
32393;SDS011;18853;45.426;9.206;2022-07-30T12:30:31;4.93;;;3.88;;
32393;SDS011;18853;45.426;9.206;2022-07-30T12:32:57;6.97;;;3.80;;
32393;SDS011;18853;45.426;9.206;2022-07-30T12:35:40;4.68;;;3.10;;
32393;SDS011;18853;45.426;9.206;2022-07-30T12:38:16;5.35;;;3.40;;
32393;SDS011;18853;45.426;9.206;2022-07-30T12:40:50;5.38;;;3.80;;
32393;SDS011;18853;45.426;9.206;2022-07-30T12:46:11;6.60;;;3.80;;
32393;SDS011;18853;45.426;9.206;2022-07-30T12:48:51;4.68;;;3.67;;
32393;SDS011;18853;45.426;9.206;2022-07-30T12:51:18;6.57;;;3.63;;
32393;SDS011;18853;45.426;9.206;2022-07-30T12:53:44;4.50;;;3.60;;
32393;SDS011;18853;45.426;9.206;2022-07-30T12:56:13;6.50;;;3.35;;
32393;SDS011;18853;45.426;9.206;2022-07-30T12:58:47;6.63;;;3.45;;
32393;SDS011;18853;45.426;9.206;2022-07-30T13:01:13;4.30;;;3.75;;
32393;SDS011;18853;45.426;9.206;2022-07-30T13:03:40;3.83;;;3.40;;
32393;SDS011;18853;45.426;9.206;2022-07-30T13:06:15;8.43;;;3.58;;
32393;SDS011;18853;45.426;9.206;2022-07-30T13:08:46;5.45;;;3.50;;
32393;SDS011;18853;45.426;9.206;2022-07-30T13:11:12;5.43;;;3.72;;
32393;SDS011;18853;45.426;9.206;2022-07-30T13:13:38;4.80;;;3.25;;
32393;SDS011;18853;45.426;9.206;2022-07-30T13:16:05;4.47;;;3.30;;
32393;SDS011;18853;45.426;9.206;2022-07-30T13:18:32;5.25;;;3.83;;
32393;SDS011;18853;45.426;9.206;2022-07-30T13:21:00;3.65;;;3.30;;
32393;SDS011;18853;45.426;9.206;2022-07-30T13:23:28;5.05;;;3.70;;
32393;SDS011;18853;45.426;9.206;2022-07-30T13:25:54;5.18;;;3.00;;
32393;SDS011;18853;45.426;9.206;2022-07-30T13:28:20;5.03;;;3.33;;
32393;SDS011;18853;45.426;9.206;2022-07-30T13:30:46;4.47;;;3.08;;
32393;SDS011;18853;45.426;9.206;2022-07-30T13:33:13;4.50;;;3.78;;
32393;SDS011;18853;45.426;9.206;2022-07-30T13:35:39;4.75;;;2.95;;
32393;SDS011;18853;45.426;9.206;2022-07-30T13:38:05;5.05;;;3.60;;
32393;SDS011;18853;45.426;9.206;2022-07-30T13:40:30;6.78;;;4.60;;
32393;SDS011;18853;45.426;9.206;2022-07-30T13:42:57;6.88;;;4.13;;
32393;SDS011;18853;45.426;9.206;2022-07-30T13:45:24;5.90;;;3.88;;
32393;SDS011;18853;45.426;9.206;2022-07-30T13:47:49;5.45;;;3.25;;
32393;SDS011;18853;45.426;9.206;2022-07-30T13:50:15;4.47;;;3.30;;
32393;SDS011;18853;45.426;9.206;2022-07-30T13:52:41;4.72;;;3.20;;
32393;SDS011;18853;45.426;9.206;2022-07-30T13:55:06;6.22;;;3.70;;
32393;SDS011;18853;45.426;9.206;2022-07-30T13:57:32;5.28;;;3.20;;
32393;SDS011;18853;45.426;9.206;2022-07-30T13:59:58;4.03;;;3.33;;
32393;SDS011;18853;45.426;9.206;2022-07-30T14:02:23;4.63;;;3.45;;
32393;SDS011;18853;45.426;9.206;2022-07-30T14:04:49;6.38;;;4.57;;
32393;SDS011;18853;45.426;9.206;2022-07-30T14:07:14;5.45;;;3.92;;
32393;SDS011;18853;45.426;9.206;2022-07-30T14:09:40;5.93;;;3.25;;
32393;SDS011;18853;45.426;9.206;2022-07-30T14:12:06;4.60;;;3.65;;
32393;SDS011;18853;45.426;9.206;2022-07-30T14:14:32;3.92;;;2.92;;
32393;SDS011;18853;45.426;9.206;2022-07-30T14:16:57;5.47;;;3.28;;
32393;SDS011;18853;45.426;9.206;2022-07-30T14:19:23;3.67;;;2.88;;
32393;SDS011;18853;45.426;9.206;2022-07-30T14:21:49;3.92;;;2.70;;
32393;SDS011;18853;45.426;9.206;2022-07-30T14:24:16;6.75;;;2.70;;
32393;SDS011;18853;45.426;9.206;2022-07-30T14:26:42;3.67;;;2.83;;
32393;SDS011;18853;45.426;9.206;2022-07-30T14:29:08;4.25;;;2.80;;
32393;SDS011;18853;45.426;9.206;2022-07-30T14:31:34;4.28;;;3.05;;
32393;SDS011;18853;45.426;9.206;2022-07-30T14:34:00;4.63;;;3.00;;
32393;SDS011;18853;45.426;9.206;2022-07-30T14:36:26;5.38;;;3.55;;
32393;SDS011;18853;45.426;9.206;2022-07-30T14:38:55;6.85;;;3.50;;
32393;SDS011;18853;45.426;9.206;2022-07-30T14:41:21;4.15;;;3.10;;
32393;SDS011;18853;45.426;9.206;2022-07-30T14:43:47;4.45;;;3.08;;
32393;SDS011;18853;45.426;9.206;2022-07-30T14:46:13;9.27;;;3.67;;
32393;SDS011;18853;45.426;9.206;2022-07-30T14:48:39;6.13;;;2.60;;
32393;SDS011;18853;45.426;9.206;2022-07-30T14:51:04;3.97;;;2.72;;
32393;SDS011;18853;45.426;9.206;2022-07-30T14:53:30;8.27;;;2.67;;
32393;SDS011;18853;45.426;9.206;2022-07-30T14:55:55;5.78;;;2.67;;
32393;SDS011;18853;45.426;9.206;2022-07-30T14:58:21;3.42;;;2.13;;
32393;SDS011;18853;45.426;9.206;2022-07-30T15:00:47;3.50;;;2.55;;
32393;SDS011;18853;45.426;9.206;2022-07-30T15:03:13;3.55;;;2.45;;
32393;SDS011;18853;45.426;9.206;2022-07-30T15:05:39;4.32;;;2.65;;
32393;SDS011;18853;45.426;9.206;2022-07-30T15:08:05;4.18;;;2.25;;
32393;SDS011;18853;45.426;9.206;2022-07-30T15:10:31;3.05;;;2.17;;
32393;SDS011;18853;45.426;9.206;2022-07-30T15:12:57;3.65;;;2.10;;
32393;SDS011;18853;45.426;9.206;2022-07-30T15:15:22;3.28;;;2.10;;
32393;SDS011;18853;45.426;9.206;2022-07-30T15:17:48;6.78;;;2.30;;
32393;SDS011;18853;45.426;9.206;2022-07-30T15:20:14;4.20;;;2.13;;
32393;SDS011;18853;45.426;9.206;2022-07-30T15:22:39;3.72;;;2.33;;
32393;SDS011;18853;45.426;9.206;2022-07-30T15:25:05;4.38;;;2.25;;